createdAt,value
2023-04-18T06:04:10.240Z,72.4
2023-04-18T06:09:45.159Z,73.7
2023-04-18T06:15:40.299Z,74.9
2023-04-18T06:21:24.160Z,75.9
2023-04-18T06:27:31.324Z,75.1
2023-04-18T06:33:08.898Z,75.3
2023-04-18T06:39:17.783Z,75.9
2023-04-18T06:44:56.550Z,75.1
2023-04-18T06:50:32.044Z,75.5
2023-04-18T06:56:12.548Z,74.8
2023-04-18T07:02:17.717Z,75
2023-04-18T07:07:54.218Z,75
2023-04-18T07:13:31.393Z,74.9
2023-04-18T07:19:07.447Z,75.1
2023-04-18T07:24:42.900Z,74.1
2023-04-18T07:30:19.011Z,74.7
2023-04-18T07:35:57.220Z,74.1
2023-04-18T07:41:38.518Z,72.2
2023-04-18T07:47:14.163Z,71
2023-04-18T07:53:02.956Z,70.9
2023-04-18T07:58:50.931Z,70.5
2023-04-18T08:04:49.991Z,70.1
2023-04-18T08:10:37.320Z,66
2023-04-18T08:16:17.790Z,67.3
2023-04-18T08:21:55.351Z,66.2
2023-04-18T08:27:32.813Z,67.6
2023-04-18T08:33:11.465Z,67.5
2023-04-18T08:38:49.877Z,66.9
2023-04-18T08:44:26.101Z,65.2
2023-04-18T08:50:01.884Z,65.9
2023-04-18T08:55:48.706Z,63.1
2023-04-18T09:02:10.151Z,64.1
2023-04-18T09:07:43.780Z,61.8
2023-04-18T09:13:19.562Z,65.3
2023-04-18T09:19:07.803Z,59.7
2023-04-18T09:25:09.071Z,60.2
2023-04-18T09:31:31.467Z,60.3
2023-04-18T09:37:18.185Z,59.1
2023-04-18T09:42:54.588Z,59
2023-04-18T09:48:52.384Z,57
2023-04-18T09:54:29.773Z,55
2023-04-18T10:00:05.536Z,53.6
2023-04-18T10:05:42.188Z,55
2023-04-18T10:11:21.050Z,54.9
2023-04-18T10:16:58.185Z,53.1
2023-04-18T10:22:39.423Z,53
2023-04-18T10:28:15.990Z,48.1
2023-04-18T10:34:05.012Z,50.5
2023-04-18T10:39:51.815Z,50.3
2023-04-18T10:45:50.023Z,47.6
2023-04-18T10:52:08.309Z,48.8
2023-04-18T10:57:44.629Z,46.8
2023-04-18T11:03:20.796Z,47.4
2023-04-18T11:09:00.130Z,47.1
2023-04-18T11:14:36.590Z,45.2
2023-04-18T11:20:13.326Z,45.4
2023-04-18T11:25:50.244Z,47.8
2023-04-18T11:31:28.080Z,44.7
2023-04-18T11:37:21.524Z,45.2
2023-04-18T11:43:12.860Z,45.5
2023-04-18T11:49:09.687Z,45.2
2023-04-18T11:55:04.616Z,44.6
2023-04-18T12:00:46.325Z,42.2
2023-04-18T12:07:10.424Z,44.8
2023-04-18T12:13:16.277Z,42.5
2023-04-18T12:19:18.168Z,41.8
2023-04-18T12:24:53.652Z,40.5
2023-04-18T12:30:30.273Z,40.6
2023-04-18T12:36:26.556Z,37.6
2023-04-18T12:42:02.552Z,39.8
2023-04-18T12:47:40.294Z,37.9
2023-04-18T12:53:18.793Z,36.4
2023-04-18T12:59:12.304Z,37.5
2023-04-18T13:04:50.178Z,39.6
2023-04-18T13:10:27.093Z,39.3
2023-04-18T13:16:05.199Z,35.6
2023-04-18T13:21:57.613Z,35.8
2023-04-18T13:27:40.239Z,33
2023-04-18T13:33:21.618Z,32.2
2023-04-18T13:38:58.361Z,33.9
2023-04-18T13:44:34.053Z,28.8
2023-04-18T13:50:12.401Z,28.5
2023-04-18T13:55:48.644Z,35.1
2023-04-18T14:01:24.152Z,33.5
2023-04-18T14:07:00.207Z,36.6
2023-04-18T14:12:37.007Z,36.1
2023-04-18T14:18:54.956Z,34.6
2023-04-18T14:24:40.725Z,35.3
2023-04-18T14:30:23.233Z,35.9
2023-04-18T14:36:04.715Z,37.1
2023-04-18T14:41:40.908Z,35.7
2023-04-18T14:48:14.435Z,36.6
2023-04-18T14:54:06.377Z,36.6
2023-04-18T14:59:41.682Z,36.8
2023-04-18T15:05:17.033Z,38.3
2023-04-18T15:10:52.524Z,38.4
2023-04-18T15:16:47.207Z,38.6
2023-04-18T15:22:32.692Z,36.5
2023-04-18T15:28:12.495Z,37.3
2023-04-18T15:33:51.676Z,36.9
2023-04-18T15:39:46.750Z,39.6
2023-04-18T15:45:30.218Z,41
2023-04-18T15:51:24.988Z,40.2
2023-04-18T15:57:24.480Z,41.8
2023-04-18T16:03:09.277Z,40.6
2023-04-18T16:09:41.361Z,43.7
2023-04-18T16:15:47.258Z,39.7
2023-04-18T16:21:27.290Z,40.7
2023-04-18T16:27:06.290Z,43.3
2023-04-18T16:32:44.740Z,43.2
2023-04-18T16:38:23.350Z,46.8
2023-04-18T16:44:36.742Z,51.5
2023-04-18T16:50:12.636Z,50.4
2023-04-18T16:56:07.507Z,51.3
2023-04-18T17:01:52.248Z,47.4
2023-04-18T17:07:28.763Z,48.3
2023-04-18T17:13:16.957Z,50.2
2023-04-18T17:18:54.537Z,50.5
2023-04-18T17:24:30.011Z,49.9
2023-04-18T17:30:08.007Z,48.6
2023-04-18T17:36:07.319Z,48.9
2023-04-18T17:41:46.114Z,49.3
2023-04-18T17:47:25.275Z,47.7
2023-04-18T17:53:05.449Z,48.8
2023-04-18T17:58:44.802Z,49.5
2023-04-18T18:04:27.444Z,50.3
2023-04-18T18:10:05.756Z,50.8
2023-04-18T18:15:41.614Z,51
2023-04-18T18:21:20.632Z,52.7
2023-04-18T18:26:56.916Z,52.6
2023-04-18T18:32:43.280Z,53.4
2023-04-18T18:38:26.313Z,52.5
2023-04-18T18:44:06.764Z,56.5
2023-04-18T18:49:43.133Z,56.7
2023-04-18T18:55:33.441Z,55.3
2023-04-18T19:01:31.217Z,55.9
2023-04-18T19:07:04.936Z,55.2
2023-04-18T19:12:43.815Z,57.9
2023-04-18T19:18:25.574Z,57.9
2023-04-18T19:24:00.734Z,58.3
2023-04-18T19:29:36.470Z,58.2
2023-04-18T19:35:12.281Z,57.3
2023-04-18T19:40:49.877Z,61.5
2023-04-18T19:46:40.116Z,60.6
2023-04-18T19:52:23.554Z,59.6
2023-04-18T19:58:04.520Z,58.9
2023-04-18T20:04:02.255Z,63.1
2023-04-18T20:09:37.819Z,61.6
2023-04-18T20:15:25.091Z,62.6
2023-04-18T20:21:10.411Z,60
2023-04-18T20:26:46.593Z,62.2
2023-04-18T20:32:22.992Z,62.2
2023-04-18T20:37:58.435Z,64.9
2023-04-18T20:43:34.597Z,65.1
2023-04-18T20:49:10.863Z,64.7
2023-04-18T20:56:20.739Z,65.3
2023-04-18T21:02:28.069Z,66.2
2023-04-18T21:08:02.725Z,67.1
2023-04-18T21:13:37.867Z,68.6
